sensor_id;sensor_type;location;lat;lon;timestamp;P1;durP1;ratioP1;P2;durP2;ratioP2
51660;SDS011;37741;49.748;8.490;2024-02-21T00:02:05;8.70;;;4.10;;
51660;SDS011;37741;49.748;8.490;2024-02-21T00:04:31;12.23;;;3.88;;
51660;SDS011;37741;49.748;8.490;2024-02-21T00:06:57;11.73;;;5.28;;
51660;SDS011;37741;49.748;8.490;2024-02-21T00:09:22;10.73;;;4.07;;
51660;SDS011;37741;49.748;8.490;2024-02-21T00:11:48;9.75;;;4.15;;
51660;SDS011;37741;49.748;8.490;2024-02-21T00:14:14;9.77;;;4.68;;
51660;SDS011;37741;49.748;8.490;2024-02-21T00:16:39;8.63;;;4.07;;
51660;SDS011;37741;49.748;8.490;2024-02-21T00:19:05;9.55;;;4.15;;
51660;SDS011;37741;49.748;8.490;2024-02-21T00:21:31;9.18;;;4.53;;
51660;SDS011;37741;49.748;8.490;2024-02-21T00:23:56;10.48;;;4.30;;
51660;SDS011;37741;49.748;8.490;2024-02-21T00:26:22;9.80;;;5.13;;
51660;SDS011;37741;49.748;8.490;2024-02-21T00:28:48;8.38;;;4.20;;
51660;SDS011;37741;49.748;8.490;2024-02-21T00:31:13;10.32;;;4.43;;
51660;SDS011;37741;49.748;8.490;2024-02-21T00:33:39;10.90;;;5.05;;
51660;SDS011;37741;49.748;8.490;2024-02-21T00:36:04;8.75;;;3.90;;
51660;SDS011;37741;49.748;8.490;2024-02-21T00:38:30;7.95;;;3.90;;
51660;SDS011;37741;49.748;8.490;2024-02-21T00:40:56;6.97;;;3.67;;
51660;SDS011;37741;49.748;8.490;2024-02-21T00:43:21;8.82;;;3.85;;
51660;SDS011;37741;49.748;8.490;2024-02-21T00:45:49;14.20;;;5.28;;
51660;SDS011;37741;49.748;8.490;2024-02-21T00:48:15;8.10;;;4.20;;
51660;SDS011;37741;49.748;8.490;2024-02-21T00:50:40;8.80;;;3.63;;
51660;SDS011;37741;49.748;8.490;2024-02-21T00:53:06;7.05;;;3.85;;
51660;SDS011;37741;49.748;8.490;2024-02-21T00:55:32;5.72;;;3.75;;
51660;SDS011;37741;49.748;8.490;2024-02-21T00:57:59;11.55;;;4.65;;
51660;SDS011;37741;49.748;8.490;2024-02-21T01:00:24;9.50;;;4.82;;
51660;SDS011;37741;49.748;8.490;2024-02-21T01:02:50;7.72;;;4.05;;
51660;SDS011;37741;49.748;8.490;2024-02-21T01:05:16;7.45;;;4.53;;
51660;SDS011;37741;49.748;8.490;2024-02-21T01:07:41;6.95;;;4.18;;
51660;SDS011;37741;49.748;8.490;2024-02-21T01:10:07;9.77;;;4.70;;
51660;SDS011;37741;49.748;8.490;2024-02-21T01:12:33;10.35;;;4.53;;
51660;SDS011;37741;49.748;8.490;2024-02-21T01:14:59;11.23;;;4.93;;
51660;SDS011;37741;49.748;8.490;2024-02-21T01:17:24;9.60;;;4.60;;
51660;SDS011;37741;49.748;8.490;2024-02-21T01:19:50;7.30;;;3.85;;
51660;SDS011;37741;49.748;8.490;2024-02-21T01:22:16;9.13;;;4.47;;
51660;SDS011;37741;49.748;8.490;2024-02-21T01:24:42;8.10;;;4.13;;
51660;SDS011;37741;49.748;8.490;2024-02-21T01:27:08;9.23;;;4.82;;
51660;SDS011;37741;49.748;8.490;2024-02-21T01:29:34;8.18;;;4.18;;
51660;SDS011;37741;49.748;8.490;2024-02-21T01:32:00;8.05;;;3.90;;
51660;SDS011;37741;49.748;8.490;2024-02-21T01:34:25;8.30;;;4.30;;
51660;SDS011;37741;49.748;8.490;2024-02-21T01:36:51;9.77;;;4.53;;
51660;SDS011;37741;49.748;8.490;2024-02-21T01:39:17;7.82;;;4.32;;
51660;SDS011;37741;49.748;8.490;2024-02-21T01:41:42;9.70;;;4.97;;
51660;SDS011;37741;49.748;8.490;2024-02-21T01:44:08;6.50;;;3.53;;
51660;SDS011;37741;49.748;8.490;2024-02-21T01:46:34;7.72;;;4.68;;
51660;SDS011;37741;49.748;8.490;2024-02-21T01:49:00;9.75;;;4.90;;
51660;SDS011;37741;49.748;8.490;2024-02-21T01:51:26;9.55;;;4.85;;
51660;SDS011;37741;49.748;8.490;2024-02-21T01:53:53;9.10;;;4.80;;
51660;SDS011;37741;49.748;8.490;2024-02-21T01:56:20;8.45;;;4.22;;
51660;SDS011;37741;49.748;8.490;2024-02-21T01:58:46;7.25;;;4.03;;
51660;SDS011;37741;49.748;8.490;2024-02-21T02:01:13;9.27;;;4.72;;
51660;SDS011;37741;49.748;8.490;2024-02-21T02:03:39;8.82;;;4.82;;
51660;SDS011;37741;49.748;8.490;2024-02-21T02:06:05;7.88;;;4.75;;
51660;SDS011;37741;49.748;8.490;2024-02-21T02:08:34;9.82;;;4.57;;
51660;SDS011;37741;49.748;8.490;2024-02-21T02:11:00;9.43;;;4.75;;
51660;SDS011;37741;49.748;8.490;2024-02-21T02:13:26;10.63;;;4.82;;
51660;SDS011;37741;49.748;8.490;2024-02-21T02:15:52;8.50;;;4.50;;
51660;SDS011;37741;49.748;8.490;2024-02-21T02:18:18;7.00;;;4.70;;
51660;SDS011;37741;49.748;8.490;2024-02-21T02:20:44;8.68;;;4.90;;
51660;SDS011;37741;49.748;8.490;2024-02-21T02:23:26;9.30;;;4.68;;
51660;SDS011;37741;49.748;8.490;2024-02-21T02:25:56;7.13;;;4.33;;
51660;SDS011;37741;49.748;8.490;2024-02-21T02:28:22;8.85;;;4.82;;
51660;SDS011;37741;49.748;8.490;2024-02-21T02:30:48;7.22;;;4.63;;
51660;SDS011;37741;49.748;8.490;2024-02-21T02:33:14;9.40;;;4.82;;
51660;SDS011;37741;49.748;8.490;2024-02-21T02:35:40;9.85;;;5.47;;
51660;SDS011;37741;49.748;8.490;2024-02-21T02:38:06;9.35;;;4.80;;
51660;SDS011;37741;49.748;8.490;2024-02-21T02:40:33;8.77;;;4.60;;
51660;SDS011;37741;49.748;8.490;2024-02-21T02:42:59;7.57;;;4.30;;
51660;SDS011;37741;49.748;8.490;2024-02-21T02:45:25;9.40;;;4.20;;
51660;SDS011;37741;49.748;8.490;2024-02-21T02:47:55;11.27;;;5.90;;
51660;SDS011;37741;49.748;8.490;2024-02-21T02:50:22;8.27;;;4.65;;
51660;SDS011;37741;49.748;8.490;2024-02-21T02:52:48;9.30;;;4.80;;
51660;SDS011;37741;49.748;8.490;2024-02-21T02:55:14;11.82;;;6.57;;
51660;SDS011;37741;49.748;8.490;2024-02-21T02:57:39;7.43;;;4.13;;
51660;SDS011;37741;49.748;8.490;2024-02-21T03:00:07;9.00;;;4.60;;
51660;SDS011;37741;49.748;8.490;2024-02-21T03:02:34;9.77;;;4.55;;
51660;SDS011;37741;49.748;8.490;2024-02-21T03:05:00;7.97;;;4.75;;
51660;SDS011;37741;49.748;8.490;2024-02-21T03:07:26;11.50;;;4.47;;
51660;SDS011;37741;49.748;8.490;2024-02-21T03:09:52;6.53;;;4.07;;
51660;SDS011;37741;49.748;8.490;2024-02-21T03:12:18;9.23;;;4.85;;
51660;SDS011;37741;49.748;8.490;2024-02-21T03:14:49;10.45;;;4.45;;
51660;SDS011;37741;49.748;8.490;2024-02-21T03:17:15;9.63;;;5.22;;
51660;SDS011;37741;49.748;8.490;2024-02-21T03:19:41;8.30;;;4.18;;
51660;SDS011;37741;49.748;8.490;2024-02-21T03:22:07;9.77;;;5.00;;
51660;SDS011;37741;49.748;8.490;2024-02-21T03:24:32;7.35;;;4.72;;
51660;SDS011;37741;49.748;8.490;2024-02-21T03:26:58;6.88;;;3.92;;
51660;SDS011;37741;49.748;8.490;2024-02-21T03:29:24;12.10;;;4.70;;
51660;SDS011;37741;49.748;8.490;2024-02-21T03:31:50;9.38;;;4.90;;
51660;SDS011;37741;49.748;8.490;2024-02-21T03:34:15;8.63;;;4.43;;
51660;SDS011;37741;49.748;8.490;2024-02-21T03:36:41;8.35;;;4.97;;
51660;SDS011;37741;49.748;8.490;2024-02-21T03:39:07;8.70;;;4.78;;
51660;SDS011;37741;49.748;8.490;2024-02-21T03:41:34;7.97;;;4.55;;
51660;SDS011;37741;49.748;8.490;2024-02-21T03:44:00;7.63;;;4.20;;
51660;SDS011;37741;49.748;8.490;2024-02-21T03:46:27;8.70;;;4.25;;
51660;SDS011;37741;49.748;8.490;2024-02-21T03:48:52;10.55;;;5.07;;
51660;SDS011;37741;49.748;8.490;2024-02-21T03:51:18;8.15;;;4.63;;
51660;SDS011;37741;49.748;8.490;2024-02-21T03:53:44;8.13;;;3.88;;
51660;SDS011;37741;49.748;8.490;2024-02-21T03:56:09;7.25;;;4.72;;
51660;SDS011;37741;49.748;8.490;2024-02-21T03:58:35;10.35;;;4.90;;
51660;SDS011;37741;49.748;8.490;2024-02-21T04:01:01;8.05;;;3.80;;
51660;SDS011;37741;49.748;8.490;2024-02-21T04:03:27;10.77;;;5.22;;
51660;SDS011;37741;49.748;8.490;2024-02-21T04:05:53;9.15;;;4.43;;
51660;SDS011;37741;49.748;8.490;2024-02-21T04:08:19;7.30;;;3.83;;
51660;SDS011;37741;49.748;8.490;2024-02-21T04:10:44;9.65;;;4.63;;
51660;SDS011;37741;49.748;8.490;2024-02-21T04:13:10;6.88;;;4.53;;
51660;SDS011;37741;49.748;8.490;2024-02-21T04:15:36;8.27;;;4.35;;
51660;SDS011;37741;49.748;8.490;2024-02-21T04:18:01;11.77;;;4.70;;
51660;SDS011;37741;49.748;8.490;2024-02-21T04:20:28;8.18;;;5.07;;
51660;SDS011;37741;49.748;8.490;2024-02-21T04:22:54;8.50;;;3.85;;
51660;SDS011;37741;49.748;8.490;2024-02-21T04:25:20;7.30;;;4.10;;
51660;SDS011;37741;49.748;8.490;2024-02-21T04:27:46;9.70;;;4.45;;
51660;SDS011;37741;49.748;8.490;2024-02-21T04:30:11;7.20;;;3.80;;
51660;SDS011;37741;49.748;8.490;2024-02-21T04:32:37;9.10;;;4.13;;
51660;SDS011;37741;49.748;8.490;2024-02-21T04:35:03;8.07;;;4.00;;
51660;SDS011;37741;49.748;8.490;2024-02-21T04:37:29;9.00;;;4.40;;
51660;SDS011;37741;49.748;8.490;2024-02-21T04:39:55;6.32;;;3.70;;
51660;SDS011;37741;49.748;8.490;2024-02-21T04:42:21;11.27;;;4.70;;
51660;SDS011;37741;49.748;8.490;2024-02-21T04:44:47;7.70;;;4.30;;
51660;SDS011;37741;49.748;8.490;2024-02-21T04:47:12;6.53;;;3.88;;
51660;SDS011;37741;49.748;8.490;2024-02-21T04:49:38;9.70;;;4.60;;
51660;SDS011;37741;49.748;8.490;2024-02-21T04:52:04;8.57;;;4.28;;
51660;SDS011;37741;49.748;8.490;2024-02-21T04:54:30;10.15;;;5.25;;
51660;SDS011;37741;49.748;8.490;2024-02-21T04:56:55;7.38;;;3.85;;
51660;SDS011;37741;49.748;8.490;2024-02-21T04:59:21;5.32;;;3.20;;
51660;SDS011;37741;49.748;8.490;2024-02-21T05:01:47;7.68;;;3.58;;
51660;SDS011;37741;49.748;8.490;2024-02-21T05:04:12;8.65;;;4.93;;
51660;SDS011;37741;49.748;8.490;2024-02-21T05:06:38;6.63;;;3.92;;
51660;SDS011;37741;49.748;8.490;2024-02-21T05:09:05;8.18;;;4.13;;
51660;SDS011;37741;49.748;8.490;2024-02-21T05:11:31;7.40;;;3.75;;
51660;SDS011;37741;49.748;8.490;2024-02-21T05:13:57;7.60;;;4.28;;
51660;SDS011;37741;49.748;8.490;2024-02-21T05:16:23;11.07;;;3.92;;
51660;SDS011;37741;49.748;8.490;2024-02-21T05:18:48;9.27;;;4.63;;
51660;SDS011;37741;49.748;8.490;2024-02-21T05:21:14;9.60;;;4.10;;
51660;SDS011;37741;49.748;8.490;2024-02-21T05:23:39;6.95;;;3.75;;
51660;SDS011;37741;49.748;8.490;2024-02-21T05:26:06;5.85;;;3.45;;
51660;SDS011;37741;49.748;8.490;2024-02-21T05:28:32;8.65;;;4.22;;
51660;SDS011;37741;49.748;8.490;2024-02-21T05:30:57;8.40;;;4.43;;
51660;SDS011;37741;49.748;8.490;2024-02-21T05:33:23;9.35;;;3.88;;
51660;SDS011;37741;49.748;8.490;2024-02-21T05:35:49;8.90;;;4.85;;
51660;SDS011;37741;49.748;8.490;2024-02-21T05:38:16;6.88;;;3.72;;
51660;SDS011;37741;49.748;8.490;2024-02-21T05:40:42;9.80;;;4.38;;
51660;SDS011;37741;49.748;8.490;2024-02-21T05:43:09;6.57;;;3.72;;
51660;SDS011;37741;49.748;8.490;2024-02-21T05:45:35;10.00;;;4.90;;
51660;SDS011;37741;49.748;8.490;2024-02-21T05:48:01;8.27;;;4.05;;
51660;SDS011;37741;49.748;8.490;2024-02-21T05:50:29;8.35;;;3.72;;
51660;SDS011;37741;49.748;8.490;2024-02-21T05:52:55;7.07;;;4.20;;
51660;SDS011;37741;49.748;8.490;2024-02-21T05:55:21;5.95;;;3.63;;
51660;SDS011;37741;49.748;8.490;2024-02-21T05:58:07;10.50;;;4.35;;
51660;SDS011;37741;49.748;8.490;2024-02-21T06:00:36;6.97;;;3.72;;
51660;SDS011;37741;49.748;8.490;2024-02-21T06:03:02;6.38;;;3.28;;
51660;SDS011;37741;49.748;8.490;2024-02-21T06:05:28;6.80;;;3.40;;
51660;SDS011;37741;49.748;8.490;2024-02-21T06:07:54;8.77;;;3.88;;
51660;SDS011;37741;49.748;8.490;2024-02-21T06:10:19;11.77;;;4.13;;
51660;SDS011;37741;49.748;8.490;2024-02-21T06:12:45;9.10;;;3.70;;
51660;SDS011;37741;49.748;8.490;2024-02-21T06:15:11;8.73;;;4.72;;
51660;SDS011;37741;49.748;8.490;2024-02-21T06:17:36;5.72;;;3.80;;
51660;SDS011;37741;49.748;8.490;2024-02-21T06:20:02;7.43;;;3.55;;
51660;SDS011;37741;49.748;8.490;2024-02-21T06:22:28;6.80;;;3.67;;
51660;SDS011;37741;49.748;8.490;2024-02-21T06:24:55;8.07;;;3.92;;
51660;SDS011;37741;49.748;8.490;2024-02-21T06:27:20;9.32;;;4.35;;
51660;SDS011;37741;49.748;8.490;2024-02-21T06:29:46;11.23;;;4.07;;
51660;SDS011;37741;49.748;8.490;2024-02-21T06:32:12;7.07;;;3.78;;
51660;SDS011;37741;49.748;8.490;2024-02-21T06:34:37;6.40;;;3.88;;
51660;SDS011;37741;49.748;8.490;2024-02-21T06:37:03;8.80;;;4.20;;
51660;SDS011;37741;49.748;8.490;2024-02-21T06:39:29;8.68;;;4.10;;
51660;SDS011;37741;49.748;8.490;2024-02-21T06:41:54;9.68;;;4.57;;
51660;SDS011;37741;49.748;8.490;2024-02-21T06:44:21;6.45;;;3.78;;
51660;SDS011;37741;49.748;8.490;2024-02-21T06:46:47;5.07;;;3.65;;
51660;SDS011;37741;49.748;8.490;2024-02-21T06:49:13;9.63;;;4.50;;
51660;SDS011;37741;49.748;8.490;2024-02-21T06:51:43;9.70;;;3.78;;
51660;SDS011;37741;49.748;8.490;2024-02-21T06:54:09;11.07;;;3.90;;
51660;SDS011;37741;49.748;8.490;2024-02-21T06:56:35;8.52;;;4.65;;
51660;SDS011;37741;49.748;8.490;2024-02-21T06:59:02;7.03;;;3.80;;
51660;SDS011;37741;49.748;8.490;2024-02-21T07:01:28;7.65;;;3.78;;
51660;SDS011;37741;49.748;8.490;2024-02-21T07:03:54;7.35;;;4.18;;
51660;SDS011;37741;49.748;8.490;2024-02-21T07:06:20;10.57;;;4.05;;
51660;SDS011;37741;49.748;8.490;2024-02-21T07:08:45;11.63;;;4.25;;
51660;SDS011;37741;49.748;8.490;2024-02-21T07:11:11;10.25;;;3.83;;
51660;SDS011;37741;49.748;8.490;2024-02-21T07:13:37;8.13;;;4.30;;
51660;SDS011;37741;49.748;8.490;2024-02-21T07:16:02;8.75;;;4.43;;
51660;SDS011;37741;49.748;8.490;2024-02-21T07:18:28;10.73;;;3.78;;
51660;SDS011;37741;49.748;8.490;2024-02-21T07:20:54;7.28;;;3.83;;
51660;SDS011;37741;49.748;8.490;2024-02-21T07:23:20;8.05;;;3.80;;
51660;SDS011;37741;49.748;8.490;2024-02-21T07:25:46;7.07;;;3.78;;
51660;SDS011;37741;49.748;8.490;2024-02-21T07:28:11;10.18;;;4.45;;
51660;SDS011;37741;49.748;8.490;2024-02-21T07:30:38;9.85;;;4.95;;
51660;SDS011;37741;49.748;8.490;2024-02-21T07:33:04;7.45;;;5.13;;
51660;SDS011;37741;49.748;8.490;2024-02-21T07:35:30;11.63;;;5.03;;
51660;SDS011;37741;49.748;8.490;2024-02-21T07:37:55;10.10;;;4.80;;
51660;SDS011;37741;49.748;8.490;2024-02-21T07:40:21;11.13;;;4.25;;
51660;SDS011;37741;49.748;8.490;2024-02-21T07:42:47;8.25;;;4.65;;
51660;SDS011;37741;49.748;8.490;2024-02-21T07:45:12;10.02;;;4.82;;
51660;SDS011;37741;49.748;8.490;2024-02-21T07:47:38;6.68;;;3.95;;
51660;SDS011;37741;49.748;8.490;2024-02-21T07:50:03;10.30;;;4.28;;
51660;SDS011;37741;49.748;8.490;2024-02-21T07:52:29;8.95;;;4.32;;
51660;SDS011;37741;49.748;8.490;2024-02-21T07:54:55;7.93;;;4.35;;
51660;SDS011;37741;49.748;8.490;2024-02-21T07:57:21;7.65;;;4.72;;
51660;SDS011;37741;49.748;8.490;2024-02-21T07:59:47;8.07;;;4.88;;
51660;SDS011;37741;49.748;8.490;2024-02-21T08:02:15;10.25;;;4.15;;
51660;SDS011;37741;49.748;8.490;2024-02-21T08:04:41;11.13;;;5.43;;
51660;SDS011;37741;49.748;8.490;2024-02-21T08:07:07;9.10;;;3.67;;
51660;SDS011;37741;49.748;8.490;2024-02-21T08:09:33;8.48;;;4.65;;
51660;SDS011;37741;49.748;8.490;2024-02-21T08:11:59;10.30;;;4.70;;
51660;SDS011;37741;49.748;8.490;2024-02-21T08:14:25;5.90;;;3.97;;
51660;SDS011;37741;49.748;8.490;2024-02-21T08:16:51;8.68;;;3.85;;
51660;SDS011;37741;49.748;8.490;2024-02-21T08:19:18;7.30;;;3.95;;
51660;SDS011;37741;49.748;8.490;2024-02-21T08:21:44;11.63;;;4.65;;
51660;SDS011;37741;49.748;8.490;2024-02-21T08:24:12;10.05;;;4.75;;
51660;SDS011;37741;49.748;8.490;2024-02-21T08:26:40;7.88;;;3.83;;
51660;SDS011;37741;49.748;8.490;2024-02-21T08:29:07;8.55;;;4.78;;
51660;SDS011;37741;49.748;8.490;2024-02-21T08:31:32;8.18;;;4.78;;
51660;SDS011;37741;49.748;8.490;2024-02-21T08:33:59;7.97;;;4.57;;
51660;SDS011;37741;49.748;8.490;2024-02-21T08:36:30;8.52;;;4.63;;
51660;SDS011;37741;49.748;8.490;2024-02-21T08:38:57;10.85;;;4.32;;
51660;SDS011;37741;49.748;8.490;2024-02-21T08:41:23;7.85;;;4.55;;
51660;SDS011;37741;49.748;8.490;2024-02-21T08:43:53;7.75;;;4.25;;
51660;SDS011;37741;49.748;8.490;2024-02-21T08:46:22;8.82;;;4.13;;
51660;SDS011;37741;49.748;8.490;2024-02-21T08:48:49;7.07;;;3.83;;
51660;SDS011;37741;49.748;8.490;2024-02-21T08:51:16;10.20;;;4.97;;
51660;SDS011;37741;49.748;8.490;2024-02-21T08:53:43;8.10;;;4.05;;
51660;SDS011;37741;49.748;8.490;2024-02-21T08:56:09;8.30;;;4.38;;
51660;SDS011;37741;49.748;8.490;2024-02-21T08:58:39;6.30;;;3.97;;
51660;SDS011;37741;49.748;8.490;2024-02-21T09:01:05;8.25;;;4.70;;
51660;SDS011;37741;49.748;8.490;2024-02-21T09:03:35;9.27;;;3.97;;
51660;SDS011;37741;49.748;8.490;2024-02-21T09:06:02;11.13;;;4.63;;
51660;SDS011;37741;49.748;8.490;2024-02-21T09:08:29;8.95;;;4.88;;
51660;SDS011;37741;49.748;8.490;2024-02-21T09:10:55;10.52;;;4.82;;
51660;SDS011;37741;49.748;8.490;2024-02-21T09:13:20;6.88;;;3.72;;
51660;SDS011;37741;49.748;8.490;2024-02-21T09:15:49;9.40;;;4.13;;
51660;SDS011;37741;49.748;8.490;2024-02-21T09:18:15;9.70;;;4.43;;
51660;SDS011;37741;49.748;8.490;2024-02-21T09:20:41;9.00;;;5.28;;
51660;SDS011;37741;49.748;8.490;2024-02-21T09:23:07;10.65;;;4.32;;
51660;SDS011;37741;49.748;8.490;2024-02-21T09:25:33;10.13;;;4.95;;
51660;SDS011;37741;49.748;8.490;2024-02-21T09:27:59;13.35;;;4.50;;
51660;SDS011;37741;49.748;8.490;2024-02-21T09:30:26;14.40;;;4.97;;
51660;SDS011;37741;49.748;8.490;2024-02-21T09:32:51;12.23;;;5.15;;
51660;SDS011;37741;49.748;8.490;2024-02-21T09:35:17;12.10;;;5.35;;
51660;SDS011;37741;49.748;8.490;2024-02-21T09:37:43;9.65;;;5.30;;
51660;SDS011;37741;49.748;8.490;2024-02-21T09:40:09;15.13;;;5.60;;
51660;SDS011;37741;49.748;8.490;2024-02-21T09:42:37;9.85;;;5.03;;
51660;SDS011;37741;49.748;8.490;2024-02-21T09:45:07;9.25;;;4.90;;
51660;SDS011;37741;49.748;8.490;2024-02-21T09:48:25;10.23;;;5.17;;
51660;SDS011;37741;49.748;8.490;2024-02-21T09:50:28;13.80;;;6.18;;
51660;SDS011;37741;49.748;8.490;2024-02-21T09:52:56;10.88;;;5.15;;
51660;SDS011;37741;49.748;8.490;2024-02-21T09:55:23;13.30;;;5.50;;
51660;SDS011;37741;49.748;8.490;2024-02-21T09:57:52;13.02;;;5.45;;
51660;SDS011;37741;49.748;8.490;2024-02-21T10:00:19;15.88;;;5.68;;
51660;SDS011;37741;49.748;8.490;2024-02-21T10:02:52;8.82;;;4.28;;
51660;SDS011;37741;49.748;8.490;2024-02-21T10:05:45;13.18;;;5.22;;
51660;SDS011;37741;49.748;8.490;2024-02-21T10:08:15;7.78;;;4.57;;
51660;SDS011;37741;49.748;8.490;2024-02-21T10:10:49;9.98;;;4.50;;
51660;SDS011;37741;49.748;8.490;2024-02-21T10:13:38;10.32;;;5.10;;
51660;SDS011;37741;49.748;8.490;2024-02-21T10:16:06;9.82;;;4.82;;
51660;SDS011;37741;49.748;8.490;2024-02-21T10:18:44;7.95;;;4.10;;
51660;SDS011;37741;49.748;8.490;2024-02-21T10:21:12;9.20;;;4.20;;
51660;SDS011;37741;49.748;8.490;2024-02-21T10:23:54;10.73;;;4.07;;
51660;SDS011;37741;49.748;8.490;2024-02-21T10:26:20;12.00;;;4.63;;
51660;SDS011;37741;49.748;8.490;2024-02-21T10:28:50;11.20;;;5.43;;
51660;SDS011;37741;49.748;8.490;2024-02-21T10:31:23;11.63;;;4.78;;
51660;SDS011;37741;49.748;8.490;2024-02-21T10:36:30;9.25;;;4.20;;
51660;SDS011;37741;49.748;8.490;2024-02-21T10:38:56;10.25;;;5.50;;
51660;SDS011;37741;49.748;8.490;2024-02-21T10:41:22;14.23;;;5.60;;
51660;SDS011;37741;49.748;8.490;2024-02-21T10:43:53;12.02;;;3.90;;
51660;SDS011;37741;49.748;8.490;2024-02-21T10:46:20;8.93;;;3.90;;
51660;SDS011;37741;49.748;8.490;2024-02-21T10:48:47;8.57;;;3.78;;
51660;SDS011;37741;49.748;8.490;2024-02-21T10:51:21;9.15;;;3.88;;
51660;SDS011;37741;49.748;8.490;2024-02-21T10:56:33;8.32;;;3.72;;
51660;SDS011;37741;49.748;8.490;2024-02-21T10:59:04;9.20;;;5.15;;
51660;SDS011;37741;49.748;8.490;2024-02-21T11:01:31;9.27;;;3.30;;
51660;SDS011;37741;49.748;8.490;2024-02-21T11:04:02;8.88;;;3.10;;
51660;SDS011;37741;49.748;8.490;2024-02-21T11:06:32;7.53;;;3.57;;
51660;SDS011;37741;49.748;8.490;2024-02-21T11:09:04;8.80;;;3.65;;
51660;SDS011;37741;49.748;8.490;2024-02-21T11:11:34;8.55;;;3.17;;
51660;SDS011;37741;49.748;8.490;2024-02-21T11:14:37;6.38;;;3.03;;
51660;SDS011;37741;49.748;8.490;2024-02-21T11:17:02;7.85;;;3.42;;
51660;SDS011;37741;49.748;8.490;2024-02-21T11:19:29;9.32;;;3.85;;
51660;SDS011;37741;49.748;8.490;2024-02-21T11:21:56;11.27;;;3.28;;
51660;SDS011;37741;49.748;8.490;2024-02-21T11:24:29;7.65;;;2.90;;
51660;SDS011;37741;49.748;8.490;2024-02-21T11:29:47;4.75;;;2.55;;
51660;SDS011;37741;49.748;8.490;2024-02-21T11:32:16;7.78;;;4.22;;
51660;SDS011;37741;49.748;8.490;2024-02-21T11:34:53;7.32;;;2.95;;
51660;SDS011;37741;49.748;8.490;2024-02-21T11:37:19;8.38;;;3.08;;
51660;SDS011;37741;49.748;8.490;2024-02-21T11:39:45;12.00;;;4.25;;
51660;SDS011;37741;49.748;8.490;2024-02-21T11:42:11;7.45;;;3.58;;
51660;SDS011;37741;49.748;8.490;2024-02-21T11:44:37;6.10;;;3.17;;
51660;SDS011;37741;49.748;8.490;2024-02-21T11:47:04;6.18;;;2.90;;
51660;SDS011;37741;49.748;8.490;2024-02-21T11:49:35;8.30;;;3.53;;
51660;SDS011;37741;49.748;8.490;2024-02-21T11:52:02;9.85;;;3.80;;
51660;SDS011;37741;49.748;8.490;2024-02-21T11:54:31;7.78;;;3.03;;
51660;SDS011;37741;49.748;8.490;2024-02-21T11:56:58;10.52;;;2.85;;
51660;SDS011;37741;49.748;8.490;2024-02-21T11:59:25;8.48;;;3.45;;
51660;SDS011;37741;49.748;8.490;2024-02-21T12:01:50;8.10;;;3.47;;
51660;SDS011;37741;49.748;8.490;2024-02-21T12:04:17;7.55;;;2.50;;
51660;SDS011;37741;49.748;8.490;2024-02-21T12:06:48;7.57;;;2.47;;
51660;SDS011;37741;49.748;8.490;2024-02-21T12:09:15;8.38;;;3.67;;
51660;SDS011;37741;49.748;8.490;2024-02-21T12:11:41;7.32;;;2.65;;
51660;SDS011;37741;49.748;8.490;2024-02-21T12:14:07;7.45;;;2.72;;
51660;SDS011;37741;49.748;8.490;2024-02-21T12:16:34;7.93;;;2.72;;
51660;SDS011;37741;49.748;8.490;2024-02-21T12:19:01;7.78;;;2.63;;
51660;SDS011;37741;49.748;8.490;2024-02-21T12:21:32;7.20;;;2.75;;
51660;SDS011;37741;49.748;8.490;2024-02-21T12:26:47;6.65;;;2.53;;
51660;SDS011;37741;49.748;8.490;2024-02-21T12:29:12;10.20;;;3.58;;
51660;SDS011;37741;49.748;8.490;2024-02-21T12:31:38;10.48;;;2.90;;
51660;SDS011;37741;49.748;8.490;2024-02-21T12:34:04;8.02;;;2.83;;
51660;SDS011;37741;49.748;8.490;2024-02-21T12:36:31;6.70;;;3.38;;
51660;SDS011;37741;49.748;8.490;2024-02-21T12:38:57;6.15;;;2.70;;
51660;SDS011;37741;49.748;8.490;2024-02-21T12:41:23;6.20;;;2.38;;
51660;SDS011;37741;49.748;8.490;2024-02-21T12:43:50;7.88;;;3.13;;
51660;SDS011;37741;49.748;8.490;2024-02-21T12:46:16;4.25;;;1.90;;
51660;SDS011;37741;49.748;8.490;2024-02-21T12:48:41;4.85;;;1.95;;
51660;SDS011;37741;49.748;8.490;2024-02-21T12:51:07;8.40;;;3.45;;
51660;SDS011;37741;49.748;8.490;2024-02-21T12:53:33;7.90;;;2.72;;
51660;SDS011;37741;49.748;8.490;2024-02-21T12:55:59;5.65;;;2.55;;
51660;SDS011;37741;49.748;8.490;2024-02-21T12:58:25;7.68;;;2.40;;
51660;SDS011;37741;49.748;8.490;2024-02-21T13:00:51;6.57;;;2.58;;
51660;SDS011;37741;49.748;8.490;2024-02-21T13:03:16;8.63;;;3.63;;
51660;SDS011;37741;49.748;8.490;2024-02-21T13:05:42;9.15;;;2.25;;
51660;SDS011;37741;49.748;8.490;2024-02-21T13:08:08;9.23;;;2.72;;
51660;SDS011;37741;49.748;8.490;2024-02-21T13:10:34;8.10;;;2.70;;
51660;SDS011;37741;49.748;8.490;2024-02-21T13:13:03;10.05;;;2.67;;
51660;SDS011;37741;49.748;8.490;2024-02-21T13:15:29;6.30;;;2.60;;
51660;SDS011;37741;49.748;8.490;2024-02-21T13:17:57;7.47;;;2.70;;
51660;SDS011;37741;49.748;8.490;2024-02-21T13:20:23;6.65;;;2.80;;
51660;SDS011;37741;49.748;8.490;2024-02-21T13:22:54;5.35;;;1.98;;
51660;SDS011;37741;49.748;8.490;2024-02-21T13:25:19;7.43;;;2.60;;
51660;SDS011;37741;49.748;8.490;2024-02-21T13:27:46;5.72;;;2.42;;
51660;SDS011;37741;49.748;8.490;2024-02-21T13:30:13;8.98;;;3.25;;
51660;SDS011;37741;49.748;8.490;2024-02-21T13:32:40;7.75;;;2.72;;
51660;SDS011;37741;49.748;8.490;2024-02-21T13:35:07;6.78;;;2.70;;
51660;SDS011;37741;49.748;8.490;2024-02-21T13:37:33;5.55;;;2.17;;
51660;SDS011;37741;49.748;8.490;2024-02-21T13:39:59;8.80;;;2.38;;
51660;SDS011;37741;49.748;8.490;2024-02-21T13:42:25;8.85;;;2.25;;
51660;SDS011;37741;49.748;8.490;2024-02-21T13:44:52;7.47;;;2.10;;
51660;SDS011;37741;49.748;8.490;2024-02-21T13:47:18;12.43;;;2.80;;
51660;SDS011;37741;49.748;8.490;2024-02-21T13:49:44;6.22;;;2.30;;
51660;SDS011;37741;49.748;8.490;2024-02-21T13:52:09;5.80;;;2.50;;
51660;SDS011;37741;49.748;8.490;2024-02-21T13:58:00;7.00;;;2.53;;
51660;SDS011;37741;49.748;8.490;2024-02-21T14:00:25;6.30;;;2.75;;
51660;SDS011;37741;49.748;8.490;2024-02-21T14:02:52;9.82;;;2.78;;
51660;SDS011;37741;49.748;8.490;2024-02-21T14:05:19;5.35;;;2.33;;
51660;SDS011;37741;49.748;8.490;2024-02-21T14:07:45;8.05;;;2.83;;
51660;SDS011;37741;49.748;8.490;2024-02-21T14:10:11;6.50;;;2.38;;
51660;SDS011;37741;49.748;8.490;2024-02-21T14:12:36;7.82;;;3.65;;
51660;SDS011;37741;49.748;8.490;2024-02-21T14:15:03;10.23;;;2.53;;
51660;SDS011;37741;49.748;8.490;2024-02-21T14:17:30;8.38;;;2.63;;
51660;SDS011;37741;49.748;8.490;2024-02-21T14:19:55;5.40;;;2.45;;
51660;SDS011;37741;49.748;8.490;2024-02-21T14:22:21;7.03;;;2.33;;
51660;SDS011;37741;49.748;8.490;2024-02-21T14:24:47;5.45;;;2.45;;
51660;SDS011;37741;49.748;8.490;2024-02-21T14:27:12;4.97;;;2.58;;
51660;SDS011;37741;49.748;8.490;2024-02-21T14:29:39;6.13;;;2.30;;
51660;SDS011;37741;49.748;8.490;2024-02-21T14:32:04;7.05;;;2.20;;
51660;SDS011;37741;49.748;8.490;2024-02-21T14:34:30;6.70;;;2.85;;
51660;SDS011;37741;49.748;8.490;2024-02-21T14:36:56;7.47;;;2.72;;
51660;SDS011;37741;49.748;8.490;2024-02-21T14:39:22;6.57;;;2.50;;
51660;SDS011;37741;49.748;8.490;2024-02-21T14:41:48;7.50;;;2.40;;
51660;SDS011;37741;49.748;8.490;2024-02-21T14:44:13;8.63;;;2.65;;
51660;SDS011;37741;49.748;8.490;2024-02-21T14:46:39;5.65;;;2.92;;
51660;SDS011;37741;49.748;8.490;2024-02-21T14:49:05;8.60;;;2.78;;
51660;SDS011;37741;49.748;8.490;2024-02-21T14:51:30;7.88;;;2.58;;
51660;SDS011;37741;49.748;8.490;2024-02-21T14:53:56;5.53;;;2.25;;
51660;SDS011;37741;49.748;8.490;2024-02-21T14:56:21;7.50;;;2.20;;
51660;SDS011;37741;49.748;8.490;2024-02-21T14:58:48;8.55;;;2.75;;